KCVO/CVO METAR and TAF weather

Enter ICAO airport designator
Station Type Date Time Source
KCVO METAR 2020/02/29 02:56 UTC NOAA

KCVO 290256Z AUTO 20010KT 10SM -RA SCT025 BKN043 OVC065 08/06 A3015 RMK AO2 RAB23 SLP211 P0000 60000 T00780061 51004


Station Type Date Time Source
KCVO Decoded METAR 2020/02/29 02:56 UTC NOAA

Corvallis, Corvallis Municipal Airport, OR, United States (KCVO) 44-30N 123-17W
Feb 28, 2020 - 09:56 PM EST / 2020.02.29 0256 UTC
Wind: from the SSW (200 degrees) at 12 MPH (10 KT):0
Visibility: 10 mile(s):0
Sky conditions: overcast
Weather: light rain
Precipitation last hour: A trace
Temperature: 46.0 F (7.8 C)
Dew Point: 43.0 F (6.1 C)
Relative Humidity: 88%
Pressure (altimeter): 30.15 in. Hg (1020 hPa)
Pressure tendency: 0.01 inches (0.4 hPa) higher than three hours ago
ob: KCVO 290256Z AUTO 20010KT 10SM -RA SCT025 BKN043 OVC065 08/06 A3015 RMK AO2 RAB23 SLP211 P0000 60000 T00780061 51004
cycle: 3

Station Type Date Time Source
KCVO TAF UTC NOAA

Error!

Example: see airport list